createdAt,value
2023-04-27T00:03:59.990Z,2.50
2023-04-27T00:09:22.243Z,3.50
2023-04-27T00:14:44.753Z,2.90
2023-04-27T00:20:09.027Z,3.10
2023-04-27T00:25:31.570Z,2.43
2023-04-27T00:30:56.533Z,2.40
2023-04-27T00:36:18.753Z,2.60
2023-04-27T00:41:43.540Z,2.30
2023-04-27T00:47:08.210Z,2.50
2023-04-27T00:52:31.361Z,2.20
2023-04-27T00:57:53.667Z,2.30
2023-04-27T01:03:17.608Z,2.27
2023-04-27T01:08:39.970Z,2.00
2023-04-27T01:14:06.890Z,2.40
2023-04-27T01:19:29.407Z,2.27
2023-04-27T01:24:51.897Z,2.00
2023-04-27T01:30:14.506Z,2.00
2023-04-27T01:35:37.193Z,2.17
2023-04-27T01:41:03.265Z,2.17
2023-04-27T01:46:25.748Z,2.10
2023-04-27T01:51:47.983Z,2.00
2023-04-27T01:57:11.944Z,2.13
2023-04-27T02:02:34.508Z,1.77
2023-04-27T02:07:57.138Z,1.90
2023-04-27T02:13:19.632Z,1.80
2023-04-27T02:18:41.957Z,2.33
2023-04-27T02:24:05.705Z,2.53
2023-04-27T02:29:31.772Z,2.23
2023-04-27T02:34:56.835Z,2.17
2023-04-27T02:40:18.927Z,1.90
2023-04-27T02:45:41.528Z,1.93
2023-04-27T02:51:04.911Z,2.40
2023-04-27T02:56:27.217Z,2.00
2023-04-27T03:01:49.851Z,2.00
2023-04-27T03:07:12.957Z,1.87
2023-04-27T03:12:35.486Z,2.20
2023-04-27T03:17:57.692Z,1.93
2023-04-27T03:23:20.008Z,1.90
2023-04-27T03:28:42.458Z,1.87
2023-04-27T03:34:04.700Z,2.13
2023-04-27T03:39:27.681Z,2.03
2023-04-27T03:44:50.079Z,2.37
2023-04-27T03:50:12.530Z,1.67
2023-04-27T03:55:38.298Z,2.00
2023-04-27T04:01:00.715Z,2.00
2023-04-27T04:06:23.297Z,2.10
2023-04-27T04:11:47.659Z,2.50
2023-04-27T04:17:11.129Z,1.83
2023-04-27T04:22:36.867Z,2.07
2023-04-27T04:27:59.488Z,2.53
2023-04-27T04:33:22.108Z,2.53
2023-04-27T04:38:44.614Z,2.47
2023-04-27T04:44:07.202Z,2.30
2023-04-27T04:49:29.371Z,2.47
2023-04-27T04:54:53.117Z,2.27
2023-04-27T05:00:17.172Z,2.60
2023-04-27T05:05:39.325Z,2.40
2023-04-27T05:11:01.672Z,2.40
2023-04-27T05:16:24.139Z,2.37
2023-04-27T05:21:46.616Z,1.97
2023-04-27T05:27:08.925Z,2.13
2023-04-27T05:32:33.853Z,2.07
2023-04-27T05:37:56.819Z,1.90
2023-04-27T05:43:19.307Z,2.17
2023-04-27T05:48:41.852Z,2.10
2023-04-27T05:54:04.192Z,2.10
2023-04-27T05:59:27.567Z,2.23
2023-04-27T06:04:49.881Z,2.40
2023-04-27T06:10:12.095Z,2.10
2023-04-27T06:15:34.220Z,3.03
2023-04-27T06:21:01.779Z,2.80
2023-04-27T06:26:24.650Z,2.23
2023-04-27T06:31:47.414Z,2.53
2023-04-27T06:37:10.020Z,2.43
2023-04-27T06:42:32.442Z,2.10
2023-04-27T06:47:54.689Z,2.43
2023-04-27T06:53:17.451Z,3.10
2023-04-27T06:58:39.723Z,2.13
2023-04-27T07:04:03.665Z,2.23
2023-04-27T07:09:27.852Z,1.90
2023-04-27T07:14:51.075Z,1.83
2023-04-27T07:20:14.409Z,1.70
2023-04-27T07:25:37.373Z,1.90
2023-04-27T07:30:59.897Z,1.90
2023-04-27T07:36:22.367Z,1.80
2023-04-27T07:41:44.663Z,1.90
2023-04-27T07:47:07.030Z,1.83
2023-04-27T07:52:29.618Z,1.90
2023-04-27T07:57:54.139Z,2.10
2023-04-27T08:03:16.739Z,2.37
2023-04-27T08:08:39.517Z,2.27
2023-04-27T08:14:01.789Z,2.17
2023-04-27T08:19:24.088Z,2.00
2023-04-27T08:24:46.376Z,2.03
2023-04-27T08:30:09.302Z,2.00
2023-04-27T08:35:31.484Z,2.37
2023-04-27T08:40:54.104Z,2.33
2023-04-27T08:46:25.253Z,1.93
2023-04-27T08:51:47.492Z,2.30
2023-04-27T08:57:11.455Z,1.97
2023-04-27T09:02:34.365Z,2.10
2023-04-27T09:08:02.661Z,2.27
2023-04-27T09:13:35.713Z,1.73
2023-04-27T09:18:58.816Z,1.93
2023-04-27T09:24:21.351Z,1.90
2023-04-27T09:29:43.640Z,2.20
2023-04-27T09:35:20.595Z,1.93
2023-04-27T09:40:43.185Z,1.70
2023-04-27T09:46:06.142Z,2.03
2023-04-27T09:51:31.959Z,2.07
2023-04-27T09:57:16.231Z,2.10
2023-04-27T10:03:12.010Z,2.00
2023-04-27T10:08:35.975Z,2.00
2023-04-27T10:13:58.091Z,2.30
2023-04-27T10:19:21.949Z,1.93
2023-04-27T10:24:49.741Z,1.80
2023-04-27T10:30:14.057Z,1.73
2023-04-27T10:35:39.546Z,2.10
2023-04-27T10:41:05.433Z,2.50
2023-04-27T10:46:27.994Z,2.00
2023-04-27T10:51:51.837Z,1.87
2023-04-27T10:57:14.178Z,2.20
2023-04-27T11:02:36.720Z,3.07
2023-04-27T11:08:10.494Z,2.43
2023-04-27T11:13:33.829Z,2.20
2023-04-27T11:18:57.888Z,2.37
2023-04-27T11:24:21.545Z,2.00
2023-04-27T11:29:43.918Z,2.23
2023-04-27T11:35:06.469Z,2.07
2023-04-27T11:40:29.390Z,1.90
2023-04-27T11:45:51.830Z,1.97
2023-04-27T11:51:13.907Z,1.60
2023-04-27T11:56:42.258Z,1.87
2023-04-27T12:02:04.852Z,1.73
2023-04-27T12:07:27.328Z,1.40
2023-04-27T12:12:50.178Z,1.50
2023-04-27T12:18:12.752Z,1.53
2023-04-27T12:23:34.956Z,1.53
2023-04-27T12:28:57.491Z,1.57
2023-04-27T12:34:19.852Z,1.63
2023-04-27T12:39:42.431Z,1.40
2023-04-27T12:45:05.399Z,1.80
2023-04-27T12:50:27.570Z,1.53
2023-04-27T12:55:50.090Z,1.40
2023-04-27T13:01:15.462Z,1.43
2023-04-27T13:06:38.278Z,1.30
2023-04-27T13:12:01.682Z,1.40
2023-04-27T13:17:24.729Z,1.47
2023-04-27T13:22:47.322Z,1.40
2023-04-27T13:28:09.695Z,1.50
2023-04-27T13:33:33.146Z,1.33
2023-04-27T13:38:55.625Z,1.50
2023-04-27T13:44:18.093Z,1.70
2023-04-27T13:49:42.062Z,1.50
2023-04-27T13:55:05.709Z,1.40
2023-04-27T14:00:31.957Z,1.60
2023-04-27T14:05:54.251Z,1.40
2023-04-27T14:11:17.052Z,1.60
2023-04-27T14:16:39.435Z,1.27
2023-04-27T14:22:01.814Z,1.47
2023-04-27T14:27:25.705Z,1.43
2023-04-27T14:32:48.607Z,1.57
2023-04-27T14:38:11.493Z,1.37
2023-04-27T14:43:34.202Z,1.73
2023-04-27T14:48:56.643Z,1.50
2023-04-27T14:54:19.130Z,1.17
2023-04-27T14:59:41.646Z,1.43
2023-04-27T15:05:06.060Z,1.50
2023-04-27T15:10:28.476Z,1.27
2023-04-27T15:15:58.181Z,1.43
2023-04-27T15:21:22.248Z,1.33
2023-04-27T15:26:47.174Z,1.27
2023-04-27T15:32:09.554Z,1.40
2023-04-27T15:37:35.805Z,1.43
2023-04-27T15:42:58.022Z,1.30
2023-04-27T15:48:20.395Z,1.10
2023-04-27T15:53:42.622Z,1.27
2023-04-27T15:59:05.144Z,1.77
2023-04-27T16:04:27.428Z,1.73
2023-04-27T16:09:49.773Z,1.67
2023-04-27T16:15:12.489Z,1.57
2023-04-27T16:20:36.554Z,1.50
2023-04-27T16:25:59.378Z,1.70
2023-04-27T16:31:21.764Z,1.60
2023-04-27T16:36:44.144Z,2.00
2023-04-27T16:42:06.713Z,2.30
2023-04-27T16:47:29.159Z,1.50
2023-04-27T16:52:51.528Z,1.60
2023-04-27T16:58:14.189Z,1.53
2023-04-27T17:03:36.491Z,1.50
2023-04-27T17:08:59.116Z,1.50
2023-04-27T17:14:23.596Z,1.27
2023-04-27T17:19:46.696Z,1.60
2023-04-27T17:25:09.448Z,1.57
2023-04-27T17:30:31.741Z,1.80
2023-04-27T17:35:54.482Z,1.70
2023-04-27T17:41:17.083Z,1.40
2023-04-27T17:46:39.364Z,1.60
2023-04-27T17:52:02.225Z,1.60
2023-04-27T17:57:24.790Z,1.50
2023-04-27T18:02:49.594Z,1.60
2023-04-27T18:08:12.118Z,2.10
2023-04-27T18:13:34.671Z,1.90
2023-04-27T18:18:56.953Z,2.00
2023-04-27T18:24:19.374Z,2.13
2023-04-27T18:29:41.558Z,2.50
2023-04-27T18:35:05.731Z,2.00
2023-04-27T18:40:28.127Z,1.70
2023-04-27T18:45:51.551Z,1.80
2023-04-27T18:51:14.150Z,2.17
2023-04-27T18:56:36.501Z,2.30
2023-04-27T19:01:59.458Z,1.77
2023-04-27T19:07:23.129Z,1.90
2023-04-27T19:12:45.450Z,2.20
2023-04-27T19:18:11.388Z,2.10
2023-04-27T19:23:34.070Z,3.30
2023-04-27T19:28:56.981Z,3.70
2023-04-27T19:34:19.580Z,3.03
2023-04-27T19:39:42.193Z,3.60
2023-04-27T19:45:05.097Z,3.10
2023-04-27T19:50:30.516Z,3.13
2023-04-27T19:55:52.801Z,3.17
2023-04-27T20:01:15.427Z,3.10
2023-04-27T20:06:37.842Z,2.80
2023-04-27T20:12:00.072Z,2.70
2023-04-27T20:17:24.778Z,2.20
2023-04-27T20:22:47.300Z,2.47
2023-04-27T20:28:09.750Z,2.57
2023-04-27T20:33:32.463Z,2.67
2023-04-27T20:38:54.907Z,2.70
2023-04-27T20:44:18.427Z,3.30
2023-04-27T20:49:41.187Z,7.47
2023-04-27T20:55:04.839Z,3.80
2023-04-27T21:00:26.962Z,4.30
2023-04-27T21:05:49.503Z,4.40
2023-04-27T21:11:12.171Z,2.80
2023-04-27T21:16:34.539Z,2.47
2023-04-27T21:21:57.047Z,2.60
2023-04-27T21:27:19.545Z,2.43
2023-04-27T21:32:42.339Z,2.63
2023-04-27T21:38:04.840Z,2.73
2023-04-27T21:43:27.604Z,2.57
2023-04-27T21:48:50.129Z,2.13
2023-04-27T21:54:12.654Z,5.37
2023-04-27T21:59:35.332Z,3.90
2023-04-27T22:04:58.788Z,2.40
2023-04-27T22:10:21.200Z,2.80
2023-04-27T22:15:43.825Z,2.70
2023-04-27T22:21:06.204Z,2.37
2023-04-27T22:26:28.382Z,2.53
2023-04-27T22:31:51.094Z,2.30
2023-04-27T22:37:13.272Z,2.10
2023-04-27T22:42:35.786Z,2.40
2023-04-27T22:47:58.215Z,2.03
2023-04-27T22:53:21.187Z,2.40
2023-04-27T22:58:43.512Z,2.57
2023-04-27T23:04:06.146Z,2.93
2023-04-27T23:09:28.644Z,3.90
2023-04-27T23:14:51.218Z,3.33
2023-04-27T23:20:27.514Z,3.67
2023-04-27T23:25:51.424Z,4.33
2023-04-27T23:31:13.794Z,5.73
2023-04-27T23:36:36.193Z,4.27
2023-04-27T23:41:58.420Z,4.67
2023-04-27T23:47:20.863Z,3.63
2023-04-27T23:52:43.355Z,4.93
2023-04-27T23:58:05.610Z,4.00
